Wednesday, September 19, 2018, 7:05 PM GMT
Back to Local

CWBK, Caribou Point Meteorological Aeronautical Presentation System

Location: , , Canada Lat: 45.767
Local Time: 7:05 PM GMT (19:05 GMT) Lon: -62.683
Time Zone: GMT Elev: 6 ft

Show me the last for .
Show Coded

Time T Td Feel RH Dir Speed Gust Alt SLP Vis Weather Sky Remarks
2018-09-19 18:00 59 52 - 79 80° 18 - - 30.00 0 Peak wind: 23 mph (20 kts) from 90° at 20 min
2018-09-19 17:00 58 53 - 81 90° 18 - - 30.00 0 Peak wind: 24 mph (21 kts) from 90° at 03 min
2018-09-19 16:00 58 53 - 83 80° 20 - - 29.99 0 Peak wind: 23 mph (20 kts) from 80° at 59 min
2018-09-19 15:00 57 54 - 89 70° 17 - - 30.00 0 Peak wind: 21 mph (19 kts) from 60° at 23 min
1-hr Precip Total: 0.04"
2018-09-19 14:00 56 53 - 88 70° 18 - - 29.98 0 Peak wind: 24 mph (21 kts) from 90° at 02 min
1-hr Precip Total: 0.07"
2018-09-19 13:00 58 52 - 81 90° 21 - - 29.95 0 Peak wind: 24 mph (21 kts) from 90° at 12 min
2018-09-19 12:00 58 53 - 83 90° 20 - - 29.91 0 Peak wind: 25 mph (22 kts) from 90° at 09 min
2018-09-19 11:00 56 52 - 86 90° 22 28 - 29.90 0 Peak wind: 28 mph (25 kts) from 90° at 26 min
2018-09-19 10:00 56 53 - 88 90° 24 - - 29.88 0 Peak wind: 29 mph (26 kts) from 90° at 27 min
2018-09-19 09:00 58 53 - 84 90° 24 - - 29.85 0 Peak wind: 28 mph (25 kts) from 80° at 10 min
2018-09-19 08:00 58 54 - 86 90° 24 - - 29.83 0 Peak wind: 28 mph (25 kts) from 80° at 29 min
2018-09-19 07:00 58 54 - 83 80° 23 - - 29.84 0 Peak wind: 27 mph (24 kts) from 80° at 32 min
2018-09-19 06:00 59 55 - 86 90° 25 - - 29.82 0 Peak wind: 28 mph (25 kts) from 90° at 41 min
2018-09-19 05:00 58 55 - 88 80° 25 - - 29.81 0 Peak wind: 29 mph (26 kts) from 80° at 03 min
2018-09-19 04:00 58 56 - 93 80° 25 - - 29.82 0 Peak wind: 29 mph (26 kts) from 80° at 45 min
2018-09-19 03:00 58 56 - 93 80° 23 - - 29.83 0 Peak wind: 27 mph (24 kts) from 70° at 27 min
2018-09-19 02:00 59 58 - 93 70° 24 - - 29.81 0 Peak wind: 32 mph (28 kts) from 40° at 29 min
1-hr Precip Total: 0.01"
2018-09-19 01:00 60 58 - 92 40° 24 - - 29.81 0 Peak wind: 29 mph (26 kts) from 40° at 44 min
2018-09-19 00:00 59 56 - 91 30° 23 - - 29.82 0 Peak wind: 27 mph (24 kts) from 30° at 51 min
2018-09-18 23:00 59 57 - 90 30° 21 - - 29.80 0 Peak wind: 25 mph (22 kts) from 40° at 17 min
2018-09-18 22:00 60 56 - 86 40° 22 - - 29.79 0 Peak wind: 25 mph (22 kts) from 50° at 41 min
2018-09-18 21:00 62 59 - 90 30° 16 - - 29.77 0 Peak wind: 21 mph (19 kts) from 30° at 26 min
1-hr Precip Total: 0.01"
2018-09-18 20:00 63 60 - 89 50° 16 - - 29.77 0 None

Support USWX by starting your Amazon purchase here.